createdAt,value
2019-03-17T00:00:07.245Z,7.00
2019-03-17T00:02:35.449Z,7.00
2019-03-17T00:05:03.410Z,6.80
2019-03-17T00:07:31.305Z,6.80
2019-03-17T00:09:59.510Z,6.80
2019-03-17T00:12:31.670Z,6.90
2019-03-17T00:15:05.115Z,6.90
2019-03-17T00:17:29.617Z,6.90
2019-03-17T00:20:03.756Z,6.80
2019-03-17T00:22:31.951Z,6.70
2019-03-17T00:25:09.075Z,6.60
2019-03-17T00:27:31.266Z,6.70
2019-03-17T00:29:59.158Z,6.70
2019-03-17T00:32:27.126Z,6.70
2019-03-17T00:34:55.022Z,6.70
2019-03-17T00:37:24.149Z,6.70
2019-03-17T00:39:52.017Z,6.70
2019-03-17T00:42:19.917Z,6.70
2019-03-17T00:44:50.879Z,6.70
2019-03-17T00:47:18.860Z,6.60
2019-03-17T00:49:49.772Z,6.60
2019-03-17T00:52:17.669Z,6.70
2019-03-17T00:54:45.600Z,6.70
2019-03-17T00:57:13.487Z,6.70
2019-03-17T00:59:43.655Z,6.60
2019-03-17T01:02:11.552Z,6.40
2019-03-17T01:04:39.444Z,6.40
2019-03-17T01:07:07.505Z,6.40
2019-03-17T01:09:38.520Z,6.40
2019-03-17T01:12:06.480Z,6.30
2019-03-17T01:14:37.340Z,6.20
2019-03-17T01:17:08.176Z,6.20
2019-03-17T01:19:36.060Z,6.40
2019-03-17T01:22:04.104Z,6.50
2019-03-17T01:24:32.008Z,6.50
2019-03-17T01:26:59.912Z,6.50
2019-03-17T01:29:27.828Z,6.50
2019-03-17T01:31:56.497Z,6.40
2019-03-17T01:34:27.455Z,6.40
2019-03-17T01:36:55.393Z,6.50
2019-03-17T01:39:23.369Z,6.50
2019-03-17T01:41:51.279Z,6.40
2019-03-17T01:44:19.478Z,6.30
2019-03-17T01:46:50.431Z,6.10
2019-03-17T01:49:18.612Z,6.00
2019-03-17T01:51:46.488Z,6.10
2019-03-17T01:54:14.624Z,6.10
2019-03-17T01:56:42.517Z,6.10
2019-03-17T01:59:13.438Z,6.20
2019-03-17T02:01:41.325Z,6.20
2019-03-17T02:04:09.216Z,6.30
2019-03-17T02:06:37.205Z,6.20
2019-03-17T02:09:09.278Z,6.40
2019-03-17T02:11:37.224Z,6.50
2019-03-17T02:14:05.205Z,6.50
2019-03-17T02:16:35.984Z,6.50
2019-03-17T02:19:09.772Z,6.60
2019-03-17T02:21:41.005Z,6.70
2019-03-17T02:24:08.898Z,6.70
2019-03-17T02:26:41.096Z,6.70
2019-03-17T02:29:08.934Z,6.80
2019-03-17T02:31:36.821Z,6.70
2019-03-17T02:34:04.745Z,6.70
2019-03-17T02:36:32.697Z,6.80
2019-03-17T02:39:04.834Z,6.80
2019-03-17T02:41:38.677Z,6.70
2019-03-17T02:44:09.775Z,6.70
2019-03-17T02:46:37.905Z,6.50
2019-03-17T02:49:09.196Z,6.50
2019-03-17T02:51:37.164Z,6.50
2019-03-17T02:54:07.658Z,6.60
2019-03-17T02:56:38.645Z,6.90
2019-03-17T02:59:09.949Z,6.70
2019-03-17T03:01:40.724Z,6.40
2019-03-17T03:04:08.655Z,6.30
2019-03-17T03:06:39.311Z,6.10
2019-03-17T03:09:07.317Z,6.10
2019-03-17T03:11:38.375Z,6.20
2019-03-17T03:14:06.336Z,6.30
2019-03-17T03:16:40.110Z,6.30
2019-03-17T03:19:08.383Z,6.50
2019-03-17T03:21:36.256Z,6.60
2019-03-17T03:24:04.140Z,6.60
2019-03-17T03:26:32.156Z,6.70
2019-03-17T03:29:05.840Z,6.70
2019-03-17T03:31:33.771Z,6.80
2019-03-17T03:34:01.892Z,6.80
2019-03-17T03:36:32.634Z,6.60
2019-03-17T03:39:00.524Z,6.50
2019-03-17T03:41:34.636Z,6.50
2019-03-17T03:44:02.614Z,6.50
2019-03-17T03:46:30.566Z,6.60
2019-03-17T03:49:00.323Z,6.50
2019-03-17T03:51:31.046Z,6.50
2019-03-17T03:53:58.966Z,6.40
2019-03-17T03:56:26.861Z,6.30
2019-03-17T03:58:54.832Z,6.50
2019-03-17T04:01:23.108Z,6.40
2019-03-17T04:03:54.301Z,6.30
2019-03-17T04:06:26.951Z,6.20
2019-03-17T04:08:51.865Z,6.00
2019-03-17T04:11:19.781Z,6.00
2019-03-17T04:13:47.673Z,5.80
2019-03-17T04:16:15.690Z,5.70
2019-03-17T04:18:43.585Z,6.10
2019-03-17T04:21:14.576Z,6.20
2019-03-17T04:23:42.829Z,6.20
2019-03-17T04:26:10.740Z,6.40
2019-03-17T04:28:38.721Z,6.40
2019-03-17T04:31:06.860Z,6.30
2019-03-17T04:33:35.150Z,6.30
2019-03-17T04:36:05.954Z,6.20
2019-03-17T04:38:36.847Z,6.40
2019-03-17T04:41:04.753Z,6.40
2019-03-17T04:43:32.638Z,6.60
2019-03-17T04:46:00.525Z,6.60
2019-03-17T04:48:37.580Z,6.50
2019-03-17T04:51:08.529Z,6.50
2019-03-17T04:53:39.748Z,6.60
2019-03-17T04:56:08.197Z,6.60
2019-03-17T04:58:36.101Z,6.60
2019-03-17T05:01:06.818Z,6.60
2019-03-17T05:03:37.721Z,6.60
2019-03-17T05:06:08.564Z,6.70
2019-03-17T05:08:36.717Z,6.70
2019-03-17T05:11:04.690Z,6.70
2019-03-17T05:13:35.016Z,6.70
2019-03-17T05:16:03.001Z,6.90
2019-03-17T05:18:30.936Z,6.70
2019-03-17T05:20:58.812Z,6.70
2019-03-17T05:23:26.726Z,6.80
2019-03-17T05:26:00.489Z,7.00
2019-03-17T05:28:31.550Z,6.90
2019-03-17T05:30:59.709Z,6.70
2019-03-17T05:33:27.917Z,6.80
2019-03-17T05:35:55.798Z,6.90
2019-03-17T05:38:23.701Z,6.90
2019-03-17T05:40:57.048Z,6.70
2019-03-17T05:43:25.221Z,6.70
2019-03-17T05:45:53.109Z,6.80
2019-03-17T05:48:21.242Z,6.80
2019-03-17T05:50:55.006Z,6.80
2019-03-17T05:53:23.145Z,6.80
2019-03-17T05:55:51.133Z,6.90
2019-03-17T05:58:19.012Z,6.70
2019-03-17T06:00:49.815Z,6.80
2019-03-17T06:03:17.973Z,6.90
2019-03-17T06:05:45.893Z,6.90
2019-03-17T06:08:25.720Z,6.90
2019-03-17T06:10:53.608Z,6.90
2019-03-17T06:13:21.512Z,6.90
2019-03-17T06:15:49.500Z,6.90
2019-03-17T06:18:17.385Z,6.90
2019-03-17T06:20:45.681Z,7.00
2019-03-17T06:23:13.571Z,7.10
2019-03-17T06:25:44.828Z,7.30
2019-03-17T06:28:15.498Z,7.40
2019-03-17T06:30:43.421Z,7.50
2019-03-17T06:33:11.404Z,7.70
2019-03-17T06:35:39.292Z,7.70
2019-03-17T06:38:07.508Z,7.70
2019-03-17T06:40:35.506Z,7.80
2019-03-17T06:43:06.309Z,7.80
2019-03-17T06:45:34.277Z,8.10
2019-03-17T06:48:02.312Z,8.20
2019-03-17T06:50:30.324Z,8.20
2019-03-17T06:52:58.578Z,8.20
2019-03-17T06:55:26.681Z,8.20
2019-03-17T06:58:00.504Z,8.10
2019-03-17T07:00:28.474Z,8.20
2019-03-17T07:02:56.450Z,8.40
2019-03-17T07:05:24.361Z,8.40
2019-03-17T07:07:52.307Z,8.50
2019-03-17T07:10:20.275Z,8.50
2019-03-17T07:12:48.266Z,8.60
2019-03-17T07:15:16.393Z,8.60
2019-03-17T07:17:50.036Z,8.70
2019-03-17T07:20:20.746Z,8.60
2019-03-17T07:22:51.767Z,8.60
2019-03-17T07:25:19.882Z,8.70
2019-03-17T07:27:47.773Z,8.60
2019-03-17T07:30:21.852Z,8.70
2019-03-17T07:32:49.769Z,8.70
2019-03-17T07:35:19.372Z,8.70
2019-03-17T07:37:56.110Z,8.60
2019-03-17T07:40:19.716Z,8.70
2019-03-17T07:42:47.856Z,8.70
2019-03-17T07:45:15.828Z,8.60
2019-03-17T07:47:43.968Z,8.40
2019-03-17T07:50:11.924Z,8.40
2019-03-17T07:52:39.898Z,8.20
2019-03-17T07:55:07.988Z,8.10
2019-03-17T07:57:35.976Z,8.10
2019-03-17T08:00:07.075Z,8.10
2019-03-17T08:02:35.278Z,8.00
2019-03-17T08:05:07.728Z,8.00
2019-03-17T08:07:35.761Z,7.90
2019-03-17T08:10:06.600Z,7.90
2019-03-17T08:12:35.625Z,7.80
2019-03-17T08:15:03.786Z,7.80
2019-03-17T08:17:31.858Z,7.80
2019-03-17T08:20:02.860Z,7.70
2019-03-17T08:22:31.520Z,7.70
2019-03-17T08:38:24.234Z,8.00
2019-03-17T08:41:07.279Z,7.90
2019-03-17T08:43:54.203Z,7.80
2019-03-17T08:46:18.277Z,7.70
2019-03-17T08:48:46.699Z,7.80
2019-03-17T09:39:34.125Z,7.70
2019-03-17T10:00:24.156Z,7.80
2019-03-17T10:03:23.391Z,7.80
2019-03-17T11:45:01.548Z,6.00
2019-03-17T11:47:51.567Z,6.10
2019-03-17T12:55:44.375Z,6.90
2019-03-17T13:14:41.362Z,7.30
2019-03-17T13:44:02.420Z,8.00
2019-03-17T14:14:15.844Z,9.80
2019-03-17T14:20:47.528Z,10.30
2019-03-17T14:23:58.017Z,12.20
2019-03-17T14:26:54.560Z,13.60
2019-03-17T14:29:49.203Z,14.70
2019-03-17T14:36:19.686Z,13.20
2019-03-17T17:13:42.168Z,6.20
2019-03-17T17:16:25.439Z,6.20
2019-03-17T18:20:25.371Z,5.90
2019-03-17T18:23:34.026Z,5.80
2019-03-17T18:26:39.950Z,5.80
2019-03-17T18:32:52.723Z,5.80
2019-03-17T19:15:13.059Z,5.10
2019-03-17T19:18:12.976Z,5.20
2019-03-17T19:20:44.061Z,5.20
2019-03-17T19:23:25.305Z,5.20
2019-03-17T19:26:34.888Z,5.20
2019-03-17T19:29:05.759Z,5.20
2019-03-17T19:32:12.721Z,5.30
2019-03-17T19:34:56.610Z,5.20
2019-03-17T19:37:35.314Z,5.30
2019-03-17T19:40:33.923Z,5.30
2019-03-17T19:46:47.350Z,5.30
2019-03-17T19:53:03.094Z,5.40
2019-03-17T19:56:09.275Z,5.40
2019-03-17T19:58:47.518Z,4.70
2019-03-17T20:05:23.301Z,3.90
2019-03-17T20:26:58.333Z,3.60
2019-03-17T20:58:22.573Z,3.10
2019-03-17T21:01:19.622Z,3.10
2019-03-17T21:06:47.303Z,3.10
2019-03-17T21:09:18.587Z,2.80
2019-03-17T21:12:09.053Z,2.60
2019-03-17T21:14:39.105Z,2.60
2019-03-17T21:17:07.208Z,2.60
2019-03-17T21:19:38.732Z,2.50
2019-03-17T21:22:07.043Z,2.50
2019-03-17T21:24:39.330Z,2.50
2019-03-17T21:27:07.874Z,2.50
2019-03-17T21:29:38.641Z,2.40
2019-03-17T21:32:07.001Z,2.50
2019-03-17T21:34:37.964Z,2.60
2019-03-17T21:37:12.203Z,2.50
2019-03-17T21:39:41.231Z,2.60
2019-03-17T21:42:56.786Z,2.60
2019-03-17T21:45:44.204Z,2.70
2019-03-17T22:13:11.873Z,2.50
2019-03-17T22:15:43.432Z,2.50
2019-03-17T22:21:31.637Z,2.60
2019-03-17T22:24:12.666Z,2.60
2019-03-17T22:27:08.491Z,2.60
2019-03-17T22:29:43.824Z,2.60
2019-03-17T22:32:09.751Z,2.50
2019-03-17T22:38:14.689Z,2.50
2019-03-17T22:40:55.197Z,2.50
2019-03-17T22:43:45.022Z,2.40
2019-03-17T22:46:15.909Z,2.30
2019-03-17T22:48:56.877Z,2.30
2019-03-17T22:51:38.968Z,2.20
2019-03-17T22:54:07.836Z,2.20
2019-03-17T22:56:58.063Z,2.20
2019-03-17T23:00:10.126Z,2.10
2019-03-17T23:02:56.046Z,2.20
2019-03-17T23:08:53.418Z,2.20
2019-03-17T23:11:25.657Z,2.20
2019-03-17T23:14:40.837Z,2.30
2019-03-17T23:50:45.327Z,2.00
2019-03-17T23:53:18.342Z,2.00
2019-03-17T23:56:29.230Z,2.00
2019-03-17T23:58:59.864Z,2.00
